Time;durP1;ratioP1;P1;durP2;ratioP2;P2;SDS_P1;SDS_P2;PMS_P1;PMS_P2;Temp;Humidity;BMP_temperature;BMP_pressure;BME280_temperature;BME280_humidity;BME280_pressure;Samples;Min_cycle;Max_cycle;Signal;HPM_P1;HPM_P2
2024/01/18 00:01:53;;;;;;;9.13;8.63;;;;;;;;;;4979757;28;20042;-82
2024/01/18 00:04:19;;;;;;;10.00;9.40;;;;;;;;;;4963721;28;20074;-82
2024/01/18 00:06:44;;;;;;;9.70;8.90;;;;;;;;;;4962689;28;20114;-82
2024/01/18 00:09:10;;;;;;;9.13;8.63;;;;;;;;;;4979164;28;20042;-82
2024/01/18 00:11:35;;;;;;;9.43;8.93;;;;;;;;;;4979993;28;20031;-82
2024/01/18 00:14:01;;;;;;;9.25;8.75;;;;;;;;;;4980003;28;20249;-81
2024/01/18 00:16:27;;;;;;;9.38;8.88;;;;;;;;;;4979252;28;20527;-82
2024/01/18 00:18:53;;;;;;;9.95;9.38;;;;;;;;;;4977244;28;20038;-82
2024/01/18 00:21:18;;;;;;;9.13;8.63;;;;;;;;;;4947696;28;20053;-82
2024/01/18 00:23:44;;;;;;;9.20;8.70;;;;;;;;;;4962994;28;20038;-82
2024/01/18 00:26:09;;;;;;;9.32;8.82;;;;;;;;;;4945488;28;20077;-82
2024/01/18 00:28:35;;;;;;;9.80;9.13;;;;;;;;;;4977685;28;20042;-82
2024/01/18 00:31:00;;;;;;;9.48;8.98;;;;;;;;;;4980057;28;20066;-81
2024/01/18 00:33:26;;;;;;;9.18;8.68;;;;;;;;;;4978358;28;20034;-81
2024/01/18 00:35:51;;;;;;;9.40;8.70;;;;;;;;;;4961651;28;20141;-81
2024/01/18 00:38:17;;;;;;;9.38;8.88;;;;;;;;;;4963313;28;20032;-81
2024/01/18 00:40:43;;;;;;;9.15;8.65;;;;;;;;;;4960734;28;20069;-81
2024/01/18 00:43:10;;;;;;;8.68;8.27;;;;;;;;;;4961243;28;20042;-82
2024/01/18 00:45:35;;;;;;;8.50;8.10;;;;;;;;;;4977160;28;20046;-81
2024/01/18 00:48:01;;;;;;;9.20;8.60;;;;;;;;;;4979285;28;20448;-81
2024/01/18 00:50:26;;;;;;;9.07;8.57;;;;;;;;;;4978960;28;20044;-81
2024/01/18 00:52:52;;;;;;;8.82;8.32;;;;;;;;;;4987625;28;20038;-81
2024/01/18 00:55:18;;;;;;;8.85;8.35;;;;;;;;;;4978181;28;20093;-81
2024/01/18 00:57:43;;;;;;;8.75;8.25;;;;;;;;;;4978005;28;20033;-81
2024/01/18 01:00:09;;;;;;;8.60;8.10;;;;;;;;;;4978634;28;20048;-81
2024/01/18 01:02:35;;;;;;;8.55;8.07;;;;;;;;;;4975566;28;20042;-81
2024/01/18 01:05:00;;;;;;;8.35;7.93;;;;;;;;;;4981581;28;20145;-82
2024/01/18 01:07:26;;;;;;;8.85;8.35;;;;;;;;;;4978487;28;20092;-81
2024/01/18 01:09:52;;;;;;;8.32;7.93;;;;;;;;;;4976019;28;20043;-81
2024/01/18 01:12:17;;;;;;;8.90;8.40;;;;;;;;;;4961846;28;20079;-81
2024/01/18 01:14:43;;;;;;;9.20;8.70;;;;;;;;;;4977147;28;20048;-81
2024/01/18 01:17:08;;;;;;;8.52;8.07;;;;;;;;;;4978562;28;20038;-81
2024/01/18 01:19:34;;;;;;;8.95;8.45;;;;;;;;;;4974837;28;20035;-81
2024/01/18 01:22:00;;;;;;;8.77;8.27;;;;;;;;;;4976609;28;20052;-82
2024/01/18 01:24:25;;;;;;;8.73;8.23;;;;;;;;;;4979643;28;20034;-81
2024/01/18 01:26:51;;;;;;;9.65;8.85;;;;;;;;;;4977425;28;20045;-81
2024/01/18 01:29:16;;;;;;;8.27;7.88;;;;;;;;;;4975872;28;20038;-81
2024/01/18 01:31:43;;;;;;;8.65;8.15;;;;;;;;;;4977785;28;20045;-81
2024/01/18 01:34:08;;;;;;;9.25;8.73;;;;;;;;;;4993557;28;20034;-81
2024/01/18 01:36:34;;;;;;;8.85;8.30;;;;;;;;;;5009455;28;20035;-81
2024/01/18 01:38:59;;;;;;;8.93;8.32;;;;;;;;;;4975665;28;20032;-81
2024/01/18 01:41:25;;;;;;;8.70;8.18;;;;;;;;;;4961173;28;20053;-81
2024/01/18 01:44:00;;;;;;;9.25;8.68;;;;;;;;;;4977049;28;20722;-81
2024/01/18 01:46:27;;;;;;;8.90;8.40;;;;;;;;;;4975141;28;20046;-81
2024/01/18 01:49:00;;;;;;;9.27;8.77;;;;;;;;;;4961341;28;20038;-81
2024/01/18 01:51:30;;;;;;;9.30;8.80;;;;;;;;;;4945322;28;20027;-81
2024/01/18 01:53:57;;;;;;;9.57;9.07;;;;;;;;;;4945871;28;20034;-82
2024/01/18 01:56:22;;;;;;;8.95;8.45;;;;;;;;;;4977995;28;20046;-81
2024/01/18 01:58:49;;;;;;;9.00;8.50;;;;;;;;;;4976393;28;20041;-81
2024/01/18 02:01:15;;;;;;;9.13;8.63;;;;;;;;;;4961793;28;20034;-81
2024/01/18 02:03:41;;;;;;;9.02;8.52;;;;;;;;;;4978807;28;20049;-80
2024/01/18 02:06:08;;;;;;;8.98;8.48;;;;;;;;;;4978687;28;20035;-81
2024/01/18 02:08:33;;;;;;;8.60;8.10;;;;;;;;;;5003278;28;20077;-83
2024/01/18 02:11:00;;;;;;;9.15;8.65;;;;;;;;;;4966062;28;20046;-82
2024/01/18 02:13:26;;;;;;;8.90;8.38;;;;;;;;;;4964422;28;20149;-82
2024/01/18 02:15:51;;;;;;;8.82;8.32;;;;;;;;;;4995502;28;20062;-82
2024/01/18 02:18:17;;;;;;;9.00;8.50;;;;;;;;;;4965220;28;20065;-82
2024/01/18 02:20:42;;;;;;;8.73;8.23;;;;;;;;;;4962914;28;20034;-82
2024/01/18 02:23:09;;;;;;;8.57;8.07;;;;;;;;;;4983096;28;20042;-82
2024/01/18 02:25:35;;;;;;;9.18;8.68;;;;;;;;;;4961948;28;20572;-82
2024/01/18 02:28:01;;;;;;;8.90;8.40;;;;;;;;;;4978290;28;20125;-82
2024/01/18 02:30:26;;;;;;;9.10;8.60;;;;;;;;;;4980983;28;20587;-82
2024/01/18 02:32:52;;;;;;;8.85;8.35;;;;;;;;;;4980608;28;20038;-82
2024/01/18 02:35:18;;;;;;;8.95;8.45;;;;;;;;;;4979806;28;20057;-82
2024/01/18 02:37:44;;;;;;;9.10;8.60;;;;;;;;;;4980371;28;20065;-82
2024/01/18 02:40:09;;;;;;;8.82;8.32;;;;;;;;;;4962236;28;20124;-82
2024/01/18 02:42:35;;;;;;;8.40;8.00;;;;;;;;;;5011112;28;20038;-83
2024/01/18 02:45:03;;;;;;;8.48;7.90;;;;;;;;;;4995941;28;20144;-82
2024/01/18 02:47:29;;;;;;;9.27;8.77;;;;;;;;;;4980686;28;20046;-82
2024/01/18 02:49:56;;;;;;;9.48;8.88;;;;;;;;;;4976988;28;20042;-82
2024/01/18 02:52:22;;;;;;;9.48;8.98;;;;;;;;;;4963873;28;20128;-82
2024/01/18 02:54:47;;;;;;;9.05;8.55;;;;;;;;;;4963363;28;20472;-82
2024/01/18 02:57:13;;;;;;;8.93;8.43;;;;;;;;;;4965322;28;20069;-82
2024/01/18 02:59:38;;;;;;;9.18;8.68;;;;;;;;;;4980064;28;20042;-83
2024/01/18 03:02:04;;;;;;;8.73;8.13;;;;;;;;;;4979225;28;20073;-82
2024/01/18 03:04:31;;;;;;;9.00;8.40;;;;;;;;;;4963471;28;20129;-82
2024/01/18 03:06:57;;;;;;;8.80;8.30;;;;;;;;;;4979577;28;20038;-82
2024/01/18 03:09:23;;;;;;;8.85;8.35;;;;;;;;;;4978966;28;20038;-82
2024/01/18 03:11:49;;;;;;;8.90;8.38;;;;;;;;;;4979434;28;20046;-84
2024/01/18 03:14:14;;;;;;;10.00;9.50;;;;;;;;;;4978231;28;20041;-82
2024/01/18 03:16:42;;;;;;;9.52;9.02;;;;;;;;;;4994057;28;20029;-83
2024/01/18 03:19:12;;;;;;;10.27;9.77;;;;;;;;;;4981875;28;20038;-83
2024/01/18 03:21:37;;;;;;;;;;;;;;;;;;5009561;28;20121;-83
2024/01/18 03:24:03;;;;;;;9.80;9.30;;;;;;;;;;4995927;28;19918;-83
2024/01/18 03:26:29;;;;;;;10.07;9.48;;;;;;;;;;4971810;28;20039;-83
2024/01/18 03:28:54;;;;;;;11.23;10.43;;;;;;;;;;4961815;28;20054;-83
2024/01/18 03:31:20;;;;;;;10.65;10.05;;;;;;;;;;4980886;28;20050;-83
2024/01/18 03:33:46;;;;;;;10.88;10.10;;;;;;;;;;4977565;28;20065;-83
2024/01/18 03:36:11;;;;;;;10.90;10.30;;;;;;;;;;4979499;28;20412;-83
2024/01/18 03:38:37;;;;;;;11.63;11.02;;;;;;;;;;4978596;28;20030;-83
2024/01/18 03:41:03;;;;;;;11.40;10.73;;;;;;;;;;4962076;28;20117;-83
2024/01/18 03:43:29;;;;;;;11.55;10.95;;;;;;;;;;4996168;28;20046;-82
2024/01/18 03:45:54;;;;;;;11.35;10.65;;;;;;;;;;4977976;28;20077;-83
2024/01/18 03:48:20;;;;;;;11.65;10.98;;;;;;;;;;4977060;28;20034;-82
2024/01/18 03:50:45;;;;;;;11.60;10.90;;;;;;;;;;4977829;28;20050;-83
2024/01/18 03:53:11;;;;;;;11.07;10.45;;;;;;;;;;4960888;28;20057;-82
2024/01/18 03:55:36;;;;;;;11.32;10.70;;;;;;;;;;4978825;28;20038;-83
2024/01/18 03:58:02;;;;;;;11.10;10.45;;;;;;;;;;4946473;28;20128;-82
2024/01/18 04:00:28;;;;;;;11.18;10.50;;;;;;;;;;4978994;28;20038;-83
2024/01/18 04:02:54;;;;;;;10.85;10.25;;;;;;;;;;4976545;28;20047;-83
2024/01/18 04:05:19;;;;;;;11.85;10.93;;;;;;;;;;4979004;28;20041;-83
2024/01/18 04:07:45;;;;;;;11.20;10.60;;;;;;;;;;4960567;28;20049;-83
2024/01/18 04:10:11;;;;;;;10.50;9.85;;;;;;;;;;4978845;28;20097;-82
2024/01/18 04:12:36;;;;;;;10.90;10.30;;;;;;;;;;4977951;28;20057;-83
2024/01/18 04:15:03;;;;;;;10.73;10.05;;;;;;;;;;4975989;28;20037;-83
2024/01/18 04:17:29;;;;;;;10.80;10.00;;;;;;;;;;4978791;28;20140;-83
2024/01/18 04:19:55;;;;;;;10.85;10.25;;;;;;;;;;4960651;28;20424;-83
2024/01/18 04:22:22;;;;;;;10.60;9.90;;;;;;;;;;4978619;28;20551;-83
2024/01/18 04:24:49;;;;;;;10.73;10.02;;;;;;;;;;4960569;28;20129;-83
2024/01/18 04:27:14;;;;;;;10.65;10.05;;;;;;;;;;4977023;28;20567;-83
2024/01/18 04:29:41;;;;;;;10.95;10.13;;;;;;;;;;4977021;28;20050;-83
2024/01/18 04:32:07;;;;;;;11.40;10.40;;;;;;;;;;4978817;28;20117;-83
2024/01/18 04:34:33;;;;;;;11.35;10.65;;;;;;;;;;4978081;28;20124;-83
2024/01/18 04:36:59;;;;;;;10.48;9.88;;;;;;;;;;4956838;28;21509;-83
2024/01/18 04:39:24;;;;;;;10.38;9.77;;;;;;;;;;4945862;28;20045;-83
2024/01/18 04:41:50;;;;;;;10.68;9.85;;;;;;;;;;4976270;28;20527;-83
2024/01/18 04:44:15;;;;;;;11.50;10.75;;;;;;;;;;4978395;28;20045;-83
2024/01/18 04:46:41;;;;;;;12.65;11.70;;;;;;;;;;4959093;28;20108;-83
2024/01/18 04:49:07;;;;;;;14.65;13.45;;;;;;;;;;4962198;28;20088;-82
2024/01/18 04:51:32;;;;;;;17.95;16.27;;;;;;;;;;4976993;28;20048;-82
2024/01/18 04:53:59;;;;;;;18.67;16.75;;;;;;;;;;4977009;28;20164;-82
2024/01/18 04:56:26;;;;;;;19.70;17.90;;;;;;;;;;4978411;28;20132;-83
2024/01/18 04:58:52;;;;;;;18.45;16.75;;;;;;;;;;4960596;28;20049;-83
2024/01/18 05:01:17;;;;;;;21.75;19.75;;;;;;;;;;4975902;28;20404;-82
2024/01/18 05:03:43;;;;;;;20.90;18.80;;;;;;;;;;4976549;28;20041;-83
2024/01/18 05:06:09;;;;;;;19.95;18.00;;;;;;;;;;4978407;28;20060;-83
2024/01/18 05:08:35;;;;;;;18.80;16.92;;;;;;;;;;4994451;28;20042;-82
2024/01/18 05:11:00;;;;;;;20.98;18.75;;;;;;;;;;4976006;28;20038;-82
2024/01/18 05:13:26;;;;;;;21.05;19.05;;;;;;;;;;4973724;28;20066;-83
2024/01/18 05:15:52;;;;;;;21.23;19.33;;;;;;;;;;4992982;28;20042;-83
2024/01/18 05:18:19;;;;;;;23.15;20.55;;;;;;;;;;4992996;28;20088;-82
2024/01/18 05:20:44;;;;;;;24.35;21.85;;;;;;;;;;4976865;28;20031;-82
2024/01/18 05:23:10;;;;;;;28.17;24.13;;;;;;;;;;4960893;28;20038;-82
2024/01/18 05:25:35;;;;;;;23.48;20.95;;;;;;;;;;4975157;28;20113;-83
2024/01/18 05:28:01;;;;;;;22.98;20.60;;;;;;;;;;4975539;28;21895;-83
2024/01/18 05:30:26;;;;;;;22.60;20.13;;;;;;;;;;4976250;28;20513;-83
2024/01/18 05:32:52;;;;;;;21.15;19.00;;;;;;;;;;4960575;28;20046;-84
2024/01/18 05:35:18;;;;;;;22.70;20.38;;;;;;;;;;4962506;28;21265;-83
2024/01/18 05:37:43;;;;;;;20.73;18.73;;;;;;;;;;4961417;28;20065;-84
2024/01/18 05:40:09;;;;;;;21.55;19.60;;;;;;;;;;4966723;28;20664;-83
2024/01/18 05:42:35;;;;;;;29.80;26.80;;;;;;;;;;4975460;28;20030;-84
2024/01/18 05:45:01;;;;;;;15.40;14.20;;;;;;;;;;4983009;28;20088;-84
2024/01/18 05:47:27;;;;;;;18.23;16.55;;;;;;;;;;4982749;28;20038;-83
2024/01/18 05:49:52;;;;;;;15.65;14.48;;;;;;;;;;4966651;28;20038;-83
2024/01/18 05:52:18;;;;;;;16.00;14.60;;;;;;;;;;4983310;28;20076;-84
2024/01/18 05:54:43;;;;;;;14.70;13.70;;;;;;;;;;4981738;28;20038;-83
2024/01/18 05:57:09;;;;;;;15.15;13.98;;;;;;;;;;4984292;28;20041;-84
2024/01/18 05:59:35;;;;;;;25.70;20.58;;;;;;;;;;4983256;28;20042;-84
2024/01/18 06:02:01;;;;;;;31.25;24.55;;;;;;;;;;4979891;28;20485;-84
2024/01/18 06:04:29;;;;;;;24.08;21.52;;;;;;;;;;4960625;28;20042;-84
2024/01/18 06:06:56;;;;;;;28.73;22.63;;;;;;;;;;4981518;28;20072;-84
2024/01/18 06:09:21;;;;;;;30.90;21.88;;;;;;;;;;4983803;28;20637;-84
2024/01/18 06:11:48;;;;;;;35.92;26.63;;;;;;;;;;4981442;28;20050;-84
2024/01/18 06:14:13;;;;;;;33.50;27.10;;;;;;;;;;4966523;28;20034;-83
2024/01/18 06:16:39;;;;;;;33.08;27.20;;;;;;;;;;4953096;28;20038;-84
2024/01/18 06:19:05;;;;;;;37.00;28.30;;;;;;;;;;4966906;28;20612;-84
2024/01/18 06:21:30;;;;;;;40.53;31.70;;;;;;;;;;4984013;28;20837;-84
2024/01/18 06:23:56;;;;;;;27.17;24.15;;;;;;;;;;4964647;28;20041;-84
2024/01/18 06:26:22;;;;;;;34.20;26.48;;;;;;;;;;4981986;28;20034;-84
2024/01/18 06:28:47;;;;;;;37.60;27.52;;;;;;;;;;4980553;28;20634;-84
2024/01/18 06:31:13;;;;;;;43.97;30.63;;;;;;;;;;4978665;28;20085;-85
2024/01/18 06:33:39;;;;;;;28.35;24.00;;;;;;;;;;4947736;28;20105;-85
2024/01/18 06:36:07;;;;;;;33.55;28.00;;;;;;;;;;4965363;28;20042;-84
2024/01/18 06:38:33;;;;;;;29.52;24.45;;;;;;;;;;4968678;28;20045;-84
2024/01/18 06:40:59;;;;;;;26.60;24.05;;;;;;;;;;4979377;28;20042;-84
2024/01/18 06:43:25;;;;;;;25.50;23.02;;;;;;;;;;4981344;28;20129;-83
2024/01/18 06:45:55;;;;;;;22.75;20.60;;;;;;;;;;4947677;28;20085;-84
2024/01/18 06:48:24;;;;;;;21.50;19.45;;;;;;;;;;4980892;28;20035;-83
2024/01/18 06:50:53;;;;;;;20.77;18.95;;;;;;;;;;4978295;28;20049;-83
2024/01/18 06:53:19;;;;;;;20.35;18.52;;;;;;;;;;4983230;28;20679;-84
2024/01/18 06:55:45;;;;;;;16.10;15.05;;;;;;;;;;4964251;28;20141;-84
2024/01/18 06:58:11;;;;;;;17.88;16.45;;;;;;;;;;4981858;28;20026;-84
2024/01/18 07:00:36;;;;;;;17.92;16.40;;;;;;;;;;4963327;28;20636;-84
2024/01/18 07:03:02;;;;;;;18.08;16.55;;;;;;;;;;4981388;28;20128;-84
2024/01/18 07:05:28;;;;;;;17.23;15.82;;;;;;;;;;4983681;28;20112;-84
2024/01/18 07:07:53;;;;;;;17.67;16.27;;;;;;;;;;4963376;28;20152;-84
2024/01/18 07:10:20;;;;;;;18.85;17.30;;;;;;;;;;4963503;28;20108;-84
2024/01/18 07:12:47;;;;;;;18.92;17.33;;;;;;;;;;4962743;28;20116;-84
2024/01/18 07:15:13;;;;;;;21.15;19.35;;;;;;;;;;4949419;28;20042;-84
2024/01/18 07:17:38;;;;;;;19.50;17.90;;;;;;;;;;4981301;28;20117;-83
2024/01/18 07:20:04;;;;;;;22.27;20.38;;;;;;;;;;4965727;28;20738;-84
2024/01/18 07:22:30;;;;;;;21.50;19.63;;;;;;;;;;4981984;28;20030;-84
2024/01/18 07:24:56;;;;;;;16.92;15.65;;;;;;;;;;4980516;28;20048;-84
2024/01/18 07:27:22;;;;;;;17.90;16.55;;;;;;;;;;4981830;28;20042;-84
2024/01/18 07:29:49;;;;;;;18.45;16.90;;;;;;;;;;4979710;28;20073;-84
2024/01/18 07:32:17;;;;;;;18.17;16.77;;;;;;;;;;4980097;28;20045;-84
2024/01/18 07:34:44;;;;;;;19.73;18.02;;;;;;;;;;4979396;28;20034;-84
2024/01/18 07:37:13;;;;;;;18.77;17.27;;;;;;;;;;4982224;28;20027;-84
2024/01/18 07:39:39;;;;;;;;;;;;;;;;;;4950134;28;20378;-84
2024/01/18 07:42:05;;;;;;;19.52;17.92;;;;;;;;;;4980094;28;20536;-84
2024/01/18 07:44:31;;;;;;;20.58;18.52;;;;;;;;;;4946292;28;20050;-85
2024/01/18 07:46:56;;;;;;;16.58;15.18;;;;;;;;;;4995523;28;20038;-84
2024/01/18 07:49:22;;;;;;;17.73;16.30;;;;;;;;;;4980897;28;20030;-84
2024/01/18 07:51:49;;;;;;;20.77;19.00;;;;;;;;;;4980104;28;20671;-83
2024/01/18 07:54:15;;;;;;;18.85;17.15;;;;;;;;;;4981776;28;20042;-84
2024/01/18 07:56:41;;;;;;;20.33;18.58;;;;;;;;;;4987143;28;20053;-84
2024/01/18 07:59:07;;;;;;;18.63;17.13;;;;;;;;;;4970011;28;20144;-84
2024/01/18 08:01:33;;;;;;;20.13;18.02;;;;;;;;;;4964920;28;20038;-83
2024/01/18 08:03:59;;;;;;;19.33;17.33;;;;;;;;;;4978644;28;20049;-84
2024/01/18 08:06:25;;;;;;;18.40;16.77;;;;;;;;;;4975624;28;20043;-84
2024/01/18 08:08:50;;;;;;;18.35;16.77;;;;;;;;;;4954378;28;20038;-84
2024/01/18 08:11:16;;;;;;;18.48;16.98;;;;;;;;;;4980207;28;20065;-83
2024/01/18 08:13:42;;;;;;;18.40;16.85;;;;;;;;;;4982265;28;20034;-83
2024/01/18 08:16:08;;;;;;;19.90;17.92;;;;;;;;;;4977551;28;20073;-83
2024/01/18 08:18:35;;;;;;;18.48;16.90;;;;;;;;;;4979992;28;20030;-84
2024/01/18 08:21:00;;;;;;;19.23;17.25;;;;;;;;;;4978453;28;20623;-84
2024/01/18 08:23:26;;;;;;;18.77;16.98;;;;;;;;;;4964706;28;20042;-84
2024/01/18 08:25:52;;;;;;;19.88;18.05;;;;;;;;;;4944989;28;20053;-83
2024/01/18 08:28:18;;;;;;;21.42;19.42;;;;;;;;;;4980793;28;20034;-84
2024/01/18 08:30:46;;;;;;;34.13;28.08;;;;;;;;;;4981974;28;20092;-84
2024/01/18 08:33:12;;;;;;;17.63;16.10;;;;;;;;;;4981766;28;20034;-83
2024/01/18 08:35:38;;;;;;;22.70;20.48;;;;;;;;;;4975742;28;20129;-84
2024/01/18 08:38:04;;;;;;;16.83;15.40;;;;;;;;;;4978402;28;20034;-84
2024/01/18 08:40:30;;;;;;;18.45;16.75;;;;;;;;;;4963039;28;20046;-83
2024/01/18 08:42:56;;;;;;;15.02;13.93;;;;;;;;;;4962485;28;20053;-82
2024/01/18 08:45:25;;;;;;;19.90;17.92;;;;;;;;;;4978740;28;20046;-83
2024/01/18 08:47:51;;;;;;;19.05;17.40;;;;;;;;;;4980355;28;20041;-83
2024/01/18 08:50:17;;;;;;;18.00;16.50;;;;;;;;;;4980916;28;20053;-82
2024/01/18 08:52:43;;;;;;;20.85;18.95;;;;;;;;;;4956604;28;20039;-84
2024/01/18 08:55:08;;;;;;;22.63;18.88;;;;;;;;;;4977803;28;20042;-84
2024/01/18 08:57:35;;;;;;;17.35;15.93;;;;;;;;;;4963219;28;20125;-85
2024/01/18 09:00:00;;;;;;;20.80;18.90;;;;;;;;;;4979269;28;20054;-84
2024/01/18 09:02:26;;;;;;;20.55;18.45;;;;;;;;;;4963568;28;20038;-85
2024/01/18 09:04:52;;;;;;;17.25;15.75;;;;;;;;;;4973294;28;20068;-81
2024/01/18 09:07:18;;;;;;;23.95;21.40;;;;;;;;;;4979346;28;20058;-82
2024/01/18 09:09:45;;;;;;;19.88;17.80;;;;;;;;;;4978905;28;20600;-82
2024/01/18 09:12:13;;;;;;;18.83;17.00;;;;;;;;;;4970646;28;20497;-82
2024/01/18 09:14:39;;;;;;;21.65;19.40;;;;;;;;;;4959169;28;20042;-84
2024/01/18 09:17:04;;;;;;;17.98;16.50;;;;;;;;;;4971762;28;20048;-84
2024/01/18 09:19:33;;;;;;;21.30;18.50;;;;;;;;;;4978794;28;20031;-84
2024/01/18 09:21:58;;;;;;;18.77;17.07;;;;;;;;;;4962162;28;20041;-83
2024/01/18 09:24:24;;;;;;;23.08;18.50;;;;;;;;;;4980530;28;20038;-84
2024/01/18 09:26:49;;;;;;;14.60;13.60;;;;;;;;;;4992063;28;20042;-83
2024/01/18 09:29:15;;;;;;;22.25;19.98;;;;;;;;;;4978640;28;20062;-84
2024/01/18 09:31:41;;;;;;;20.08;18.15;;;;;;;;;;4946959;28;20061;-84
2024/01/18 09:34:06;;;;;;;21.65;19.42;;;;;;;;;;4945369;28;20674;-83
2024/01/18 09:36:32;;;;;;;19.35;17.40;;;;;;;;;;4976873;28;20042;-85
2024/01/18 09:38:58;;;;;;;16.17;14.95;;;;;;;;;;4978641;28;20046;-84
2024/01/18 09:41:26;;;;;;;19.17;17.45;;;;;;;;;;4976584;28;20038;-84
2024/01/18 09:43:54;;;;;;;16.33;14.98;;;;;;;;;;4977400;28;20038;-84
2024/01/18 09:46:22;;;;;;;15.75;14.52;;;;;;;;;;4946208;28;20136;-84
2024/01/18 09:48:48;;;;;;;17.08;15.32;;;;;;;;;;4977830;28;20420;-86
2024/01/18 09:51:14;;;;;;;17.17;15.88;;;;;;;;;;4992756;28;20128;-84
2024/01/18 09:53:44;;;;;;;17.20;15.73;;;;;;;;;;4980557;28;20057;-84
2024/01/18 09:56:23;;;;;;;16.38;15.13;;;;;;;;;;4960867;28;20149;-85
2024/01/18 09:58:49;;;;;;;;;;;;;;;;;;4978397;28;20038;-83
2024/01/18 10:01:19;;;;;;;14.82;13.80;;;;;;;;;;4973537;28;19953;-83
2024/01/18 10:03:45;;;;;;;16.05;15.02;;;;;;;;;;4979632;28;20045;-84
2024/01/18 10:06:12;;;;;;;17.05;15.88;;;;;;;;;;4960341;28;20037;-85
2024/01/18 10:08:38;;;;;;;15.55;14.55;;;;;;;;;;4978980;28;20190;-85
2024/01/18 10:11:04;;;;;;;14.10;13.25;;;;;;;;;;4977322;28;20222;-86
2024/01/18 10:13:29;;;;;;;14.98;13.93;;;;;;;;;;4953829;28;20049;-85
2024/01/18 10:15:55;;;;;;;17.10;15.60;;;;;;;;;;4971379;28;20078;-85
2024/01/18 10:18:20;;;;;;;17.13;15.82;;;;;;;;;;4951023;28;20609;-85
2024/01/18 10:20:47;;;;;;;14.70;13.63;;;;;;;;;;4958688;28;20038;-85
2024/01/18 10:23:12;;;;;;;14.70;13.63;;;;;;;;;;4972055;28;20648;-84
2024/01/18 10:25:39;;;;;;;15.05;13.98;;;;;;;;;;4986072;28;20038;-84
2024/01/18 10:28:05;;;;;;;14.43;13.35;;;;;;;;;;4971955;28;20069;-84
2024/01/18 10:30:33;;;;;;;16.65;15.40;;;;;;;;;;4959401;28;20121;-84
2024/01/18 10:33:00;;;;;;;16.75;15.55;;;;;;;;;;4975052;28;20042;-85
2024/01/18 10:35:28;;;;;;;16.63;13.50;;;;;;;;;;4958790;28;20042;-85
2024/01/18 10:38:04;;;;;;;15.20;14.15;;;;;;;;;;4956445;28;20049;-85
2024/01/18 10:40:31;;;;;;;12.13;11.52;;;;;;;;;;4976488;28;20096;-85
2024/01/18 10:42:57;;;;;;;12.82;12.15;;;;;;;;;;4960906;28;20096;-85
2024/01/18 10:45:26;;;;;;;12.52;11.82;;;;;;;;;;4975705;28;20595;-85
2024/01/18 10:47:55;;;;;;;11.88;11.27;;;;;;;;;;4956145;28;20048;-84
2024/01/18 10:50:21;;;;;;;11.38;10.77;;;;;;;;;;4976223;28;20035;-84
2024/01/18 10:52:47;;;;;;;11.43;10.82;;;;;;;;;;4946204;28;20390;-84
2024/01/18 10:55:13;;;;;;;11.27;10.68;;;;;;;;;;4975944;28;20748;-85
2024/01/18 10:57:38;;;;;;;11.80;11.20;;;;;;;;;;4998155;28;20041;-85
2024/01/18 11:00:07;;;;;;;11.45;10.85;;;;;;;;;;4979025;28;20076;-85
2024/01/18 11:02:39;;;;;;;11.73;11.13;;;;;;;;;;4982324;28;20048;-85
2024/01/18 11:05:09;;;;;;;11.38;10.77;;;;;;;;;;4981977;28;20038;-84
2024/01/18 11:07:39;;;;;;;11.68;11.07;;;;;;;;;;4982345;28;20034;-84
2024/01/18 11:10:11;;;;;;;11.38;10.77;;;;;;;;;;4981315;28;20042;-85
2024/01/18 11:12:41;;;;;;;12.02;11.43;;;;;;;;;;4977562;28;20575;-84
2024/01/18 11:15:13;;;;;;;11.93;11.32;;;;;;;;;;4963257;28;20046;-85
2024/01/18 11:17:52;;;;;;;13.38;12.68;;;;;;;;;;4965512;28;20125;-85
2024/01/18 11:20:18;;;;;;;12.20;11.60;;;;;;;;;;5013816;28;20249;-86
2024/01/18 11:22:47;;;;;;;12.13;11.52;;;;;;;;;;4983308;28;20481;-86
2024/01/18 11:25:28;;;;;;;13.07;12.38;;;;;;;;;;4949182;28;20038;-86
2024/01/18 11:27:54;;;;;;;12.32;11.73;;;;;;;;;;4976211;28;20044;-86
2024/01/18 11:30:38;;;;;;;12.77;12.07;;;;;;;;;;5006952;28;20508;-86
2024/01/18 11:33:07;;;;;;;10.52;10.02;;;;;;;;;;4963427;28;20062;-85
2024/01/18 11:35:34;;;;;;;12.30;11.70;;;;;;;;;;5013426;28;20034;-85
2024/01/18 11:38:23;;;;;;;11.18;10.57;;;;;;;;;;4964375;28;20081;-85
2024/01/18 11:41:26;;;;;;;12.57;11.98;;;;;;;;;;4980881;28;20714;-85
2024/01/18 11:43:56;;;;;;;11.77;11.18;;;;;;;;;;4978606;28;20129;-86
2024/01/18 11:46:41;;;;;;;11.48;10.88;;;;;;;;;;4979925;28;20042;-85
2024/01/18 11:49:08;;;;;;;10.70;10.20;;;;;;;;;;4987941;28;20068;-86
2024/01/18 11:51:35;;;;;;;11.05;10.45;;;;;;;;;;4969476;28;20084;-86
2024/01/18 11:54:01;;;;;;;11.82;11.23;;;;;;;;;;4965695;28;20050;-85
2024/01/18 11:56:28;;;;;;;11.38;10.77;;;;;;;;;;4980000;28;20049;-85
2024/01/18 11:58:57;;;;;;;11.30;10.70;;;;;;;;;;4980286;28;20121;-85
2024/01/18 12:01:23;;;;;;;11.18;10.57;;;;;;;;;;4977011;28;20101;-85
2024/01/18 12:03:49;;;;;;;11.70;11.10;;;;;;;;;;4952602;28;20538;-84
2024/01/18 12:06:15;;;;;;;10.70;10.20;;;;;;;;;;4982320;28;20038;-84
2024/01/18 12:08:41;;;;;;;10.07;9.57;;;;;;;;;;4962489;28;20516;-84
2024/01/18 12:11:08;;;;;;;10.88;10.38;;;;;;;;;;4987446;28;20650;-84
2024/01/18 12:13:34;;;;;;;10.55;10.05;;;;;;;;;;4968484;28;20038;-84
2024/01/18 12:15:59;;;;;;;10.07;9.57;;;;;;;;;;4996922;28;20029;-84
2024/01/18 12:18:25;;;;;;;9.60;9.10;;;;;;;;;;5004696;28;20034;-84
2024/01/18 12:20:50;;;;;;;9.45;8.95;;;;;;;;;;5012237;28;20025;-85
2024/01/18 12:23:16;;;;;;;9.80;9.30;;;;;;;;;;5037945;28;20034;-85
2024/01/18 12:25:43;;;;;;;10.02;9.52;;;;;;;;;;5016268;28;20225;-84
2024/01/18 12:28:10;;;;;;;11.25;10.65;;;;;;;;;;4993524;28;20034;-85
2024/01/18 12:30:42;;;;;;;11.05;10.45;;;;;;;;;;4995580;28;20250;-85
2024/01/18 12:33:09;;;;;;;10.27;9.77;;;;;;;;;;5035182;28;20049;-85
2024/01/18 12:35:38;;;;;;;9.85;9.35;;;;;;;;;;5007854;28;20026;-84
2024/01/18 12:38:04;;;;;;;10.35;9.85;;;;;;;;;;5005110;28;20054;-85
2024/01/18 12:40:29;;;;;;;10.40;9.90;;;;;;;;;;4981182;28;20029;-84
2024/01/18 12:43:02;;;;;;;10.48;9.98;;;;;;;;;;5006278;28;20089;-84
2024/01/18 12:45:28;;;;;;;9.75;9.25;;;;;;;;;;4992338;28;20042;-84
2024/01/18 12:47:55;;;;;;;10.05;9.55;;;;;;;;;;5004308;28;20046;-84
2024/01/18 12:50:21;;;;;;;9.77;9.27;;;;;;;;;;4985822;28;20030;-84
2024/01/18 12:52:48;;;;;;;9.68;9.18;;;;;;;;;;4984248;28;20095;-85
2024/01/18 12:55:15;;;;;;;8.85;8.45;;;;;;;;;;5002356;28;20065;-84
2024/01/18 12:57:40;;;;;;;9.80;9.30;;;;;;;;;;4999664;28;20057;-84
2024/01/18 13:00:09;;;;;;;5.30;5.10;;;;;;;;;;5031475;28;20029;-84
2024/01/18 13:02:35;;;;;;;4.93;4.72;;;;;;;;;;5010992;28;20252;-84
2024/01/18 13:05:00;;;;;;;4.68;4.47;;;;;;;;;;4976011;28;20060;-83
2024/01/18 13:07:26;;;;;;;5.03;4.82;;;;;;;;;;5016630;28;20046;-84
2024/01/18 13:09:52;;;;;;;5.05;4.85;;;;;;;;;;4994081;28;20038;-83
2024/01/18 13:12:18;;;;;;;5.20;5.00;;;;;;;;;;4977161;28;20046;-83
2024/01/18 13:14:46;;;;;;;4.70;4.50;;;;;;;;;;4958325;28;20041;-83
2024/01/18 13:17:18;;;;;;;3.80;3.70;;;;;;;;;;4977222;28;20050;-83
2024/01/18 13:19:44;;;;;;;3.90;3.80;;;;;;;;;;4986181;28;20508;-82
2024/01/18 13:22:10;;;;;;;4.30;4.10;;;;;;;;;;4953217;28;20050;-83
2024/01/18 13:24:35;;;;;;;3.95;3.85;;;;;;;;;;4958913;28;20042;-83
2024/01/18 13:27:04;;;;;;;3.80;3.70;;;;;;;;;;4977651;28;20038;-83
2024/01/18 13:29:33;;;;;;;3.95;3.83;;;;;;;;;;4985157;28;20109;-82
2024/01/18 13:31:59;;;;;;;;;;;;;;;;;;4959209;28;20821;-83
2024/01/18 13:34:25;;;;;;;3.70;3.60;;;;;;;;;;4973077;28;19917;-82
2024/01/18 13:36:50;;;;;;;3.78;3.67;;;;;;;;;;4982250;28;20046;-82
2024/01/18 13:39:20;;;;;;;3.88;3.78;;;;;;;;;;4982769;28;20065;-82
2024/01/18 13:41:46;;;;;;;3.60;3.50;;;;;;;;;;4977582;28;20042;-82
2024/01/18 13:44:11;;;;;;;3.20;3.10;;;;;;;;;;4945166;28;20069;-82
2024/01/18 13:46:37;;;;;;;3.30;3.20;;;;;;;;;;4965189;28;20105;-82
2024/01/18 13:49:03;;;;;;;3.20;3.10;;;;;;;;;;4960508;28;20104;-82
2024/01/18 13:51:30;;;;;;;3.10;3.00;;;;;;;;;;4965191;28;20041;-82
2024/01/18 13:53:56;;;;;;;3.20;3.10;;;;;;;;;;4948959;28;20049;-82
2024/01/18 13:56:23;;;;;;;3.05;2.95;;;;;;;;;;4966722;28;20034;-82
2024/01/18 13:58:52;;;;;;;3.10;3.00;;;;;;;;;;4978817;28;20108;-82
2024/01/18 14:01:18;;;;;;;3.20;3.10;;;;;;;;;;4979307;28;20497;-82
2024/01/18 14:03:47;;;;;;;3.00;2.90;;;;;;;;;;4967369;28;20101;-82
2024/01/18 14:06:15;;;;;;;3.00;2.90;;;;;;;;;;4987674;28;20048;-84
2024/01/18 14:08:45;;;;;;;3.00;2.90;;;;;;;;;;4999065;28;20152;-80
2024/01/18 14:11:11;;;;;;;;;;;;;;;;;;4982468;28;20042;-82
2024/01/18 14:13:37;;;;;;;3.10;3.00;;;;;;;;;;4987703;28;19921;-83
2024/01/18 14:16:03;;;;;;;3.00;2.90;;;;;;;;;;4979948;28;20030;-82
2024/01/18 14:18:29;;;;;;;2.90;2.80;;;;;;;;;;4952247;28;20192;-82
2024/01/18 14:20:55;;;;;;;3.05;2.95;;;;;;;;;;4984524;28;20951;-82
2024/01/18 14:23:20;;;;;;;3.00;2.90;;;;;;;;;;4979934;28;20132;-82
2024/01/18 14:25:46;;;;;;;2.92;2.83;;;;;;;;;;4988342;28;20085;-82